High Roller — WDD2839 — position and weather

sailwx.info

Track history (hours):
 
Tides and Currents Weather Stations Pressure Air Temp Water Temp Dewpoint Dewpoint Depression Visibility Wind Speed Wind Dir Waves Ship Positions

High Roller

Owner: HAYS TUG & LAUNCH SERVICE INC, WALLINGFORD, PA. More information available from US FCC via Universal Licensing System and Coast Guard Vessel Documentation Center.

Last reported at 2017-Nov-24 20:31 UTC. Time now 2017-Nov-24 20:44 UTC.
Position N 39°54' W 075°12'.

Length 33 m.

Type: Tug. MMSI: 367120550.

Date/timePositionNaut miles runAvg speedWind from/ knotsBaromVisibWave heightAir tempDewpointWater temp
2017-Nov-24 20:31N 39°54' W 075°12'2 3.9
2017-Nov-24 20:01N 39°53' W 075°10'2 4.6
2017-Nov-24 19:31N 39°55' W 075°08'3 5.3
2017-Nov-24 19:01N 39°57' W 075°08'2 4.9
2017-Nov-24 18:31N 39°59' W 075°06'1 1.6
2017-Nov-24 18:00N 39°59' W 075°05'1 2.2
2017-Nov-24 17:31N 39°58' W 075°06'4 8.6
2017-Nov-24 17:01N 39°54' W 075°08'3 6.3
2017-Nov-24 16:31N 39°54' W 075°12'0 0.0
2017-Nov-24 14:06N 39°54' W 075°12'0 1.3
2017-Nov-24 14:00N 39°54' W 075°12'1 1.1
2017-Nov-24 13:31N 39°54' W 075°13'2 4.5
2017-Nov-24 13:00N 39°53' W 075°10'3 6.5
2017-Nov-24 12:30N 39°56' W 075°08'3 6.5
2017-Nov-24 12:00N 39°59' W 075°06'1 1.8
2017-Nov-24 11:30N 39°59' W 075°05'0 0.1
2017-Nov-24 11:00N 39°59' W 075°05'3 6.9
2017-Nov-24 10:30N 39°57' W 075°08'4 8.1
2017-Nov-24 10:00N 39°53' W 075°10'3 5.3
2017-Nov-24 09:30N 39°54' W 075°13'1 1.5
2017-Nov-24 09:01N 39°54' W 075°12'0 0.2
2017-Nov-24 08:28N 39°54' W 075°12'0 0.0
2017-Nov-24 07:58N 39°54' W 075°12'0 0.0
2017-Nov-24 07:28N 39°54' W 075°12'0 0.0
2017-Nov-24 06:58N 39°54' W 075°12'0 0.0
2017-Nov-24 06:28N 39°54' W 075°12'0 0.0
2017-Nov-24 05:58N 39°54' W 075°12'0 0.0
2017-Nov-24 05:28N 39°54' W 075°12'0 0.0
2017-Nov-24 04:58N 39°54' W 075°12'0 0.0
2017-Nov-24 04:28N 39°54' W 075°12'0 0.0
2017-Nov-24 03:58N 39°54' W 075°12'0 0.0
2017-Nov-24 03:28N 39°54' W 075°12'0 0.0
2017-Nov-24 02:58N 39°54' W 075°12'0 0.0
2017-Nov-24 02:28N 39°54' W 075°12'0 0.0
2017-Nov-24 01:58N 39°54' W 075°12'0 0.0
2017-Nov-24 01:28N 39°54' W 075°12'0 0.0
2017-Nov-24 00:58N 39°54' W 075°12'0 0.0
2017-Nov-24 00:28N 39°54' W 075°12'0 0.0
2017-Nov-23 23:58N 39°54' W 075°12'0 0.0
2017-Nov-23 23:28N 39°54' W 075°12'0 0.0
2017-Nov-23 22:58N 39°54' W 075°12'0 0.0
2017-Nov-23 22:28N 39°54' W 075°12'0 0.0
2017-Nov-23 21:58N 39°54' W 075°12'0 0.0
2017-Nov-23 21:28N 39°54' W 075°12'0 0.0
2017-Nov-23 20:58N 39°54' W 075°12'0 0.0
2017-Nov-23 20:28N 39°54' W 075°12'0 0.0
2017-Nov-23 19:58N 39°54' W 075°12'0 0.0
2017-Nov-23 19:28N 39°54' W 075°12'0 0.0
2017-Nov-23 18:58N 39°54' W 075°12'0 0.0
2017-Nov-23 18:28N 39°54' W 075°12'0 0.0
2017-Nov-23 17:58N 39°54' W 075°12'0 0.0
2017-Nov-23 17:28N 39°54' W 075°12'0 0.0
2017-Nov-23 16:58N 39°54' W 075°12'0 0.0
2017-Nov-23 16:28N 39°54' W 075°12'0 0.0
2017-Nov-23 15:58N 39°54' W 075°12'0 0.0
2017-Nov-23 15:28N 39°54' W 075°12'0 0.0
2017-Nov-23 14:58N 39°54' W 075°12'0 0.0
2017-Nov-23 14:25N 39°54' W 075°12'0 0.0
2017-Nov-23 13:58N 39°54' W 075°12'0 0.0
2017-Nov-23 13:28N 39°54' W 075°12'0 0.0
2017-Nov-23 12:34N 39°54' W 075°12'0 0.0
2017-Nov-23 12:28N 39°54' W 075°12'0 0.0
2017-Nov-23 11:58N 39°54' W 075°12'0 0.0
2017-Nov-23 11:25N 39°54' W 075°12'0 0.0
2017-Nov-23 10:58N 39°54' W 075°12'0 0.0
2017-Nov-23 10:28N 39°54' W 075°12'0 0.0
2017-Nov-23 09:58N 39°54' W 075°12'0 0.0
2017-Nov-23 09:28N 39°54' W 075°12'0 0.0
2017-Nov-23 08:58N 39°54' W 075°12'0 0.0
2017-Nov-23 08:28N 39°54' W 075°12'0 0.0
2017-Nov-23 07:58N 39°54' W 075°12'0 0.0
2017-Nov-23 07:28N 39°54' W 075°12'0 0.0
2017-Nov-23 06:58N 39°54' W 075°12'0 0.0
2017-Nov-23 06:28N 39°54' W 075°12'0 0.0
2017-Nov-23 05:58N 39°54' W 075°12'0 0.0
2017-Nov-23 05:28N 39°54' W 075°12'0 0.0
2017-Nov-23 04:58N 39°54' W 075°12'0 0.0
2017-Nov-23 04:28N 39°54' W 075°12'0 0.0
2017-Nov-23 04:00N 39°54' W 075°12'1 1.5
2017-Nov-23 03:30N 39°54' W 075°13'1 2.1
2017-Nov-23 03:00N 39°53' W 075°12'3 5.2
2017-Nov-23 02:30N 39°53' W 075°08'4 7.1
2017-Nov-23 02:01N 39°57' W 075°08'3 6.5
2017-Nov-23 01:30N 39°59' W 075°05'0 0.4
2017-Nov-23 01:00N 39°59' W 075°05'0 0.1
2017-Nov-23 00:30N 39°59' W 075°05'3 6.4
2017-Nov-23 00:00N 39°57' W 075°08'4 7.7
2017-Nov-22 23:30N 39°53' W 075°08'3 5.6
2017-Nov-22 23:00N 39°54' W 075°12'1 1.2
2017-Nov-22 22:30N 39°54' W 075°13'4 7.3
2017-Nov-22 22:01N 39°54' W 075°08'1 1.9
2017-Nov-22 21:30N 39°55' W 075°08'0 0.0
2017-Nov-22 21:01N 39°55' W 075°08'0 0.0
2017-Nov-22 20:31N 39°55' W 075°08'0 0.0
2017-Nov-22 20:01N 39°55' W 075°08'0 0.1
2017-Nov-22 19:31N 39°55' W 075°08'  
2017-Nov-20 00:30N 39°47' W 075°27'0 0.2
2017-Nov-20 00:00N 39°47' W 075°27'0 0.0
2017-Nov-19 23:30N 39°47' W 075°27'0 0.0
2017-Nov-19 23:00N 39°47' W 075°27'0 0.0
2017-Nov-19 22:30N 39°47' W 075°27'0 0.0
2017-Nov-19 22:00N 39°47' W 075°27'0 0.0
2017-Nov-19 21:30N 39°47' W 075°27'0 0.0
2017-Nov-19 21:00N 39°47' W 075°27'0 0.0
2017-Nov-19 20:30N 39°47' W 075°27'0 0.0
2017-Nov-19 20:00N 39°47' W 075°27'0 0.5
2017-Nov-19 19:30N 39°47' W 075°27'1 2.4
2017-Nov-19 19:00N 39°48' W 075°25'3 5.6
2017-Nov-19 18:31N 39°50' W 075°22'3 6.8
2017-Nov-19 18:00N 39°48' W 075°26'1 1.6
2017-Nov-19 17:30N 39°47' W 075°27'0 0.2
2017-Nov-19 17:00N 39°47' W 075°27'0 0.1
2017-Nov-19 16:30N 39°47' W 075°27'0 0.3
2017-Nov-19 16:00N 39°47' W 075°27'0 0.3
2017-Nov-19 15:30N 39°47' W 075°27'0 0.1
2017-Nov-19 15:01N 39°47' W 075°27'0 0.4
2017-Nov-19 14:30N 39°47' W 075°27'2 4.6
2017-Nov-19 14:00N 39°49' W 075°24'2 5.0
2017-Nov-19 13:30N 39°50' W 075°22'0 0.5
2017-Nov-19 13:00N 39°50' W 075°21'0 0.1
2017-Nov-19 12:30N 39°50' W 075°21'0 0.1
2017-Nov-19 12:00N 39°50' W 075°21'0 0.0
2017-Nov-19 11:31N 39°50' W 075°21'0 0.0
2017-Nov-19 11:00N 39°50' W 075°21'0 0.1
2017-Nov-19 10:30N 39°50' W 075°21'0 0.1
2017-Nov-19 10:00N 39°50' W 075°21'0 0.2
2017-Nov-19 09:30N 39°50' W 075°21'0 0.0
2017-Nov-19 09:00N 39°50' W 075°21'0 0.0
2017-Nov-19 08:30N 39°50' W 075°21'0 0.0
2017-Nov-19 08:00N 39°50' W 075°21'0 0.0
2017-Nov-19 07:30N 39°50' W 075°21'0 0.2
2017-Nov-19 07:00N 39°50' W 075°21'0 0.2
2017-Nov-19 06:30N 39°50' W 075°21'0 0.0
2017-Nov-19 06:00N 39°50' W 075°21'0 0.0
2017-Nov-19 05:30N 39°50' W 075°21'0 0.0
2017-Nov-19 05:00N 39°50' W 075°21'0 0.0
2017-Nov-19 04:31N 39°50' W 075°21'0 0.0
2017-Nov-19 04:01N 39°50' W 075°21'0 0.0
2017-Nov-19 03:30N 39°50' W 075°21'0 0.0
2017-Nov-19 03:00N 39°50' W 075°21'0 0.0
2017-Nov-19 02:31N 39°50' W 075°21'0 0.1
2017-Nov-19 02:00N 39°50' W 075°21'0 0.0
2017-Nov-19 01:30N 39°50' W 075°21'0 0.2
2017-Nov-19 01:00N 39°50' W 075°21'0 0.1
2017-Nov-19 00:30N 39°50' W 075°21'0 0.0
2017-Nov-19 00:00N 39°50' W 075°21'0 0.0
2017-Nov-18 23:30N 39°50' W 075°21'0 0.0
2017-Nov-18 23:01N 39°50' W 075°21'0 0.0
2017-Nov-18 22:30N 39°50' W 075°21'0 0.1
2017-Nov-18 22:00N 39°50' W 075°21'1 1.3
2017-Nov-18 21:30N 39°50' W 075°22'2 3.7
2017-Nov-18 21:00N 39°49' W 075°24'2 4.4
2017-Nov-18 20:30N 39°47' W 075°26'1 1.0
2017-Nov-18 20:00N 39°47' W 075°27'0 0.0
2017-Nov-18 19:30N 39°47' W 075°27'0 0.2
2017-Nov-18 19:01N 39°47' W 075°27'0 0.1
2017-Nov-18 18:31N 39°47' W 075°27'0 0.1
2017-Nov-18 18:00N 39°47' W 075°27'0 0.0
2017-Nov-18 17:31N 39°47' W 075°27'0 0.0
2017-Nov-18 17:00N 39°47' W 075°27'0 0.0
2017-Nov-18 16:31N 39°47' W 075°27'0 0.2
2017-Nov-18 16:00N 39°47' W 075°27'0 0.0
2017-Nov-18 15:31N 39°47' W 075°27'0 0.0
2017-Nov-18 15:00N 39°47' W 075°27'0 0.1
2017-Nov-18 14:30N 39°47' W 075°27'0 0.0
2017-Nov-18 14:00N 39°47' W 075°27'0 0.0
2017-Nov-18 13:30N 39°47' W 075°27'0 0.0
2017-Nov-18 13:00N 39°47' W 075°27'0 0.0
2017-Nov-18 12:30N 39°47' W 075°27'0 0.0
2017-Nov-18 12:00N 39°47' W 075°27'0 0.0
2017-Nov-18 11:30N 39°47' W 075°27'0 0.0
2017-Nov-18 11:00N 39°47' W 075°27'0 0.0
2017-Nov-18 10:30N 39°47' W 075°27'0 0.0
2017-Nov-18 10:00N 39°47' W 075°27'0 0.0
2017-Nov-18 09:30N 39°47' W 075°27'0 0.1
2017-Nov-18 09:00N 39°47' W 075°27'0 0.2
2017-Nov-18 08:30N 39°47' W 075°27'2 4.8
2017-Nov-18 08:00N 39°49' W 075°24'3 5.1
2017-Nov-18 07:30N 39°50' W 075°21'0 0.0
2017-Nov-18 07:00N 39°50' W 075°21'0 0.0
2017-Nov-18 06:30N 39°50' W 075°21'0 0.0
2017-Nov-18 06:01N 39°50' W 075°21'0 0.0
2017-Nov-18 05:30N 39°50' W 075°21'0 0.0
2017-Nov-18 05:00N 39°50' W 075°21'0 0.0
2017-Nov-18 04:30N 39°50' W 075°21'0 0.0
2017-Nov-18 04:00N 39°50' W 075°21'0 0.0
2017-Nov-18 03:30N 39°50' W 075°21'0 0.0
2017-Nov-18 03:00N 39°50' W 075°21'0 0.0
2017-Nov-18 02:30N 39°50' W 075°21'0 0.0
2017-Nov-18 02:00N 39°50' W 075°21'0 0.0
2017-Nov-18 01:30N 39°50' W 075°21'0 0.0
2017-Nov-18 01:00N 39°50' W 075°21'0 0.0
2017-Nov-18 00:30N 39°50' W 075°21'0 0.0
2017-Nov-18 00:01N 39°50' W 075°21'0 0.1
2017-Nov-17 23:31N 39°50' W 075°21'0 0.0
2017-Nov-17 23:00N 39°50' W 075°21'0 0.0
2017-Nov-17 22:31N 39°50' W 075°21'0 0.0
2017-Nov-17 22:01N 39°50' W 075°21'0 0.0
2017-Nov-17 21:30N 39°50' W 075°21'0 0.0
2017-Nov-17 21:01N 39°50' W 075°21'0 0.0
2017-Nov-17 20:30N 39°50' W 075°21'0 0.0
2017-Nov-17 20:01N 39°50' W 075°21'0 0.0
2017-Nov-17 19:31N 39°50' W 075°21'0 0.0
2017-Nov-17 19:00N 39°50' W 075°21'0 0.0
2017-Nov-17 18:31N 39°50' W 075°21'0 0.0
2017-Nov-17 18:00N 39°50' W 075°21'0 0.3
2017-Nov-17 17:30N 39°50' W 075°22'0 0.0
2017-Nov-17 17:01N 39°50' W 075°22'0 0.0
2017-Nov-17 16:31N 39°50' W 075°22'0 0.1
2017-Nov-17 16:00N 39°50' W 075°22'0 0.0
2017-Nov-17 15:30N 39°50' W 075°22'0 0.0
2017-Nov-17 15:00N 39°50' W 075°22'0 0.0
2017-Nov-17 14:30N 39°50' W 075°22'0 0.0
2017-Nov-17 14:00N 39°50' W 075°22'0 0.0
2017-Nov-17 13:30N 39°50' W 075°22'0 0.0
2017-Nov-17 13:00N 39°50' W 075°22'0 0.0
2017-Nov-17 12:30N 39°50' W 075°22'0 0.1
2017-Nov-17 12:00N 39°50' W 075°22'1 2.6
2017-Nov-17 11:31N 39°49' W 075°23'3 5.2
2017-Nov-17 11:00N 39°48' W 075°26'1 2.0
2017-Nov-17 10:30N 39°47' W 075°27'0 0.0
2017-Nov-17 10:01N 39°47' W 075°27'0 0.0
2017-Nov-17 09:31N 39°47' W 075°27'0 0.0
2017-Nov-17 09:01N 39°47' W 075°27'0 0.0
2017-Nov-17 08:30N 39°47' W 075°27'0 0.0
2017-Nov-17 08:00N 39°47' W 075°27'0 0.1
2017-Nov-17 07:30N 39°47' W 075°27'0 0.0
2017-Nov-17 07:00N 39°47' W 075°27'0 0.0
2017-Nov-17 06:30N 39°47' W 075°27'0 0.0
2017-Nov-17 06:00N 39°47' W 075°27'0 0.0
2017-Nov-17 05:30N 39°47' W 075°27'0 0.0
2017-Nov-17 05:00N 39°47' W 075°27'0 0.0
2017-Nov-17 04:30N 39°47' W 075°27'0 0.0
2017-Nov-17 04:00N 39°47' W 075°27'0 0.0
2017-Nov-17 03:30N 39°47' W 075°27'1 2.4
2017-Nov-17 03:00N 39°48' W 075°26'2 4.1
2017-Nov-17 02:31N 39°49' W 075°23'2 3.4
2017-Nov-17 02:00N 39°50' W 075°22'2 3.5
2017-Nov-17 01:30N 39°51' W 075°19'0 0.1
2017-Nov-17 01:00N 39°51' W 075°19'0 0.0
2017-Nov-17 00:30N 39°51' W 075°19'0 0.0
2017-Nov-17 00:00N 39°51' W 075°19'0 0.0
2017-Nov-16 23:30N 39°51' W 075°19'0 0.0
2017-Nov-16 23:01N 39°51' W 075°19'0 0.0
2017-Nov-16 22:31N 39°51' W 075°19'0 0.4
2017-Nov-16 22:00N 39°51' W 075°20'0 0.4
2017-Nov-16 21:30N 39°51' W 075°19'0 0.0
2017-Nov-16 21:00N 39°51' W 075°19'0 0.0
2017-Nov-16 20:30N 39°51' W 075°19'0 0.0
2017-Nov-16 20:01N 39°51' W 075°19'0 0.0
2017-Nov-16 19:30N 39°51' W 075°19'0 0.0
2017-Nov-16 19:00N 39°51' W 075°19'0 0.0
2017-Nov-16 18:31N 39°51' W 075°19'0 0.0
2017-Nov-16 18:00N 39°51' W 075°19'0 0.0
2017-Nov-16 17:31N 39°51' W 075°19'0 0.0
2017-Nov-16 17:00N 39°51' W 075°19'0 0.0
2017-Nov-16 16:30N 39°51' W 075°19'0 0.0
2017-Nov-16 16:00N 39°51' W 075°19'0 0.1
2017-Nov-16 15:30N 39°51' W 075°19'3 6.7
2017-Nov-16 15:01N 39°49' W 075°23'3 6.6
2017-Nov-16 14:30N 39°47' W 075°27'0 0.1
2017-Nov-16 14:00N 39°47' W 075°27'0 0.0
2017-Nov-16 13:30N 39°47' W 075°27'0 0.0
2017-Nov-16 13:00N 39°47' W 075°27'0 0.0
2017-Nov-16 12:30N 39°47' W 075°27'0 0.0
2017-Nov-16 12:00N 39°47' W 075°27'0 0.0
2017-Nov-16 11:30N 39°47' W 075°27'0 0.0
2017-Nov-16 11:00N 39°47' W 075°27'0 0.0
2017-Nov-16 10:30N 39°47' W 075°27'0 0.0
2017-Nov-16 10:00N 39°47' W 075°27'0 0.0
2017-Nov-16 09:30N 39°47' W 075°27'0 0.0
2017-Nov-16 09:00N 39°47' W 075°27'0 0.0
2017-Nov-16 08:30N 39°47' W 075°27'0 0.0
2017-Nov-16 08:00N 39°47' W 075°27'0 0.0
2017-Nov-16 07:31N 39°47' W 075°27'0 0.0
2017-Nov-16 07:00N 39°47' W 075°27'0 0.0
2017-Nov-16 06:30N 39°47' W 075°27'0 0.0
2017-Nov-16 06:00N 39°47' W 075°27'0 0.1
2017-Nov-16 05:30N 39°47' W 075°27'0 0.3
2017-Nov-16 05:00N 39°47' W 075°27'0 0.1
2017-Nov-16 04:31N 39°47' W 075°27'0 0.2
2017-Nov-16 04:00N 39°47' W 075°27'0 0.0
2017-Nov-16 03:30N 39°47' W 075°27'0 0.0
2017-Nov-16 03:00N 39°47' W 075°27'0 0.0
2017-Nov-16 02:30N 39°47' W 075°27'0 0.0
2017-Nov-16 02:00N 39°47' W 075°27'0 0.0
2017-Nov-16 01:31N 39°47' W 075°27'0 0.0
2017-Nov-16 01:00N 39°47' W 075°27'0 0.0
2017-Nov-16 00:30N 39°47' W 075°27'0 0.0
2017-Nov-16 00:00N 39°47' W 075°27'0 0.0
2017-Nov-15 23:30N 39°47' W 075°27'0 0.0
2017-Nov-15 23:00N 39°47' W 075°27'0 0.0
2017-Nov-15 22:30N 39°47' W 075°27'0 0.0
2017-Nov-15 22:00N 39°47' W 075°27'0 0.0
2017-Nov-15 21:30N 39°47' W 075°27'0 0.0
2017-Nov-15 21:00N 39°47' W 075°27'0 0.0
2017-Nov-15 20:30N 39°47' W 075°27'0 0.0
2017-Nov-15 20:00N 39°47' W 075°27'0 0.0
2017-Nov-15 19:30N 39°47' W 075°27'0 0.0
2017-Nov-15 19:00N 39°47' W 075°27'0 0.0
2017-Nov-15 18:30N 39°47' W 075°27'0 0.0
2017-Nov-15 18:00N 39°47' W 075°27'0 0.0
2017-Nov-15 17:30N 39°47' W 075°27'0 0.0
2017-Nov-15 17:00N 39°47' W 075°27'0 0.0
2017-Nov-15 16:30N 39°47' W 075°27'0 0.1
2017-Nov-15 16:01N 39°47' W 075°27'0 0.2
2017-Nov-15 15:31N 39°47' W 075°27'0 0.1
2017-Nov-15 15:01N 39°47' W 075°27'0 0.9
2017-Nov-15 14:30N 39°47' W 075°26'3 6.3
2017-Nov-15 13:59N 39°50' W 075°23'0 0.0
2017-Nov-15 13:29N 39°50' W 075°23'0 0.0
2017-Nov-15 12:59N 39°50' W 075°23'0 0.0
2017-Nov-15 12:29N 39°50' W 075°23'0 0.0
2017-Nov-15 11:59N 39°50' W 075°23'0 0.0
2017-Nov-15 11:29N 39°50' W 075°23'0 0.0
2017-Nov-15 10:59N 39°50' W 075°23'0 0.0
2017-Nov-15 10:29N 39°50' W 075°23'0 0.0
2017-Nov-15 09:59N 39°50' W 075°23'0 0.0
2017-Nov-15 09:29N 39°50' W 075°23'0 0.0
2017-Nov-15 08:59N 39°50' W 075°23'0 0.0
2017-Nov-15 08:29N 39°50' W 075°23'0 0.0
2017-Nov-15 07:59N 39°50' W 075°23'0 0.0
2017-Nov-15 07:29N 39°50' W 075°23'0 0.0
2017-Nov-15 06:56N 39°50' W 075°23'0 0.0
2017-Nov-15 06:29N 39°50' W 075°23'0 0.0
2017-Nov-15 05:59N 39°50' W 075°23'0 0.0
2017-Nov-15 05:29N 39°50' W 075°23'0 0.0
2017-Nov-15 04:59N 39°50' W 075°23'0 0.0
2017-Nov-15 04:29N 39°50' W 075°23'0 0.0
2017-Nov-15 03:59N 39°50' W 075°23'0 0.0
2017-Nov-15 03:29N 39°50' W 075°23'0 0.0
2017-Nov-15 02:59N 39°50' W 075°23'0 0.0
2017-Nov-15 02:29N 39°50' W 075°23'0 0.0
2017-Nov-15 01:59N 39°50' W 075°23'0 0.0
2017-Nov-15 01:29N 39°50' W 075°23'0 0.0
2017-Nov-15 00:59N 39°50' W 075°23'0 0.0
2017-Nov-15 00:29N 39°50' W 075°23'0 0.0
2017-Nov-14 22:52N 39°50' W 075°23'3 7.2
2017-Nov-14 22:31N 39°51' W 075°20'1 1.2
2017-Nov-14 22:01N 39°51' W 075°19'0 0.0
2017-Nov-14 21:30N 39°51' W 075°19'0 0.0
2017-Nov-14 21:00N 39°51' W 075°19'  
Track history (hours):
 
Tides and Currents Weather Stations Pressure Air Temp Water Temp Dewpoint Dewpoint Depression Visibility Wind Speed Wind Dir Waves Ship Positions

High Roller

Owner: HAYS TUG & LAUNCH SERVICE INC, WALLINGFORD, PA. More information available from US FCC via Universal Licensing System and Coast Guard Vessel Documentation Center.

Last reported at 2017-Nov-24 20:31 UTC. Time now 2017-Nov-24 20:44 UTC.
Position N 39°54' W 075°12'.

Length 33 m.

Type: Tug. MMSI: 367120550.

Date/timePositionNaut miles runAvg speedWind from/ knotsBaromVisibWave heightAir tempDewpointWater temp
2017-Nov-24 20:31N 39°54' W 075°12'2 3.9
2017-Nov-24 20:01N 39°53' W 075°10'2 4.6
2017-Nov-24 19:31N 39°55' W 075°08'3 5.3
2017-Nov-24 19:01N 39°57' W 075°08'2 4.9
2017-Nov-24 18:31N 39°59' W 075°06'1 1.6
2017-Nov-24 18:00N 39°59' W 075°05'1 2.2
2017-Nov-24 17:31N 39°58' W 075°06'4 8.6
2017-Nov-24 17:01N 39°54' W 075°08'3 6.3
2017-Nov-24 16:31N 39°54' W 075°12'0 0.0
2017-Nov-24 14:06N 39°54' W 075°12'0 1.3
2017-Nov-24 14:00N 39°54' W 075°12'1 1.1
2017-Nov-24 13:31N 39°54' W 075°13'2 4.5
2017-Nov-24 13:00N 39°53' W 075°10'3 6.5
2017-Nov-24 12:30N 39°56' W 075°08'3 6.5
2017-Nov-24 12:00N 39°59' W 075°06'1 1.8
2017-Nov-24 11:30N 39°59' W 075°05'0 0.1
2017-Nov-24 11:00N 39°59' W 075°05'3 6.9
2017-Nov-24 10:30N 39°57' W 075°08'4 8.1
2017-Nov-24 10:00N 39°53' W 075°10'3 5.3
2017-Nov-24 09:30N 39°54' W 075°13'1 1.5
2017-Nov-24 09:01N 39°54' W 075°12'0 0.2
2017-Nov-24 08:28N 39°54' W 075°12'0 0.0
2017-Nov-24 07:58N 39°54' W 075°12'0 0.0
2017-Nov-24 07:28N 39°54' W 075°12'0 0.0
2017-Nov-24 06:58N 39°54' W 075°12'0 0.0
2017-Nov-24 06:28N 39°54' W 075°12'0 0.0
2017-Nov-24 05:58N 39°54' W 075°12'0 0.0
2017-Nov-24 05:28N 39°54' W 075°12'0 0.0
2017-Nov-24 04:58N 39°54' W 075°12'0 0.0
2017-Nov-24 04:28N 39°54' W 075°12'0 0.0
2017-Nov-24 03:58N 39°54' W 075°12'0 0.0
2017-Nov-24 03:28N 39°54' W 075°12'0 0.0
2017-Nov-24 02:58N 39°54' W 075°12'0 0.0
2017-Nov-24 02:28N 39°54' W 075°12'0 0.0
2017-Nov-24 01:58N 39°54' W 075°12'0 0.0
2017-Nov-24 01:28N 39°54' W 075°12'0 0.0
2017-Nov-24 00:58N 39°54' W 075°12'0 0.0
2017-Nov-24 00:28N 39°54' W 075°12'0 0.0
2017-Nov-23 23:58N 39°54' W 075°12'0 0.0
2017-Nov-23 23:28N 39°54' W 075°12'0 0.0
2017-Nov-23 22:58N 39°54' W 075°12'0 0.0
2017-Nov-23 22:28N 39°54' W 075°12'0 0.0
2017-Nov-23 21:58N 39°54' W 075°12'0 0.0
2017-Nov-23 21:28N 39°54' W 075°12'0 0.0
2017-Nov-23 20:58N 39°54' W 075°12'0 0.0
2017-Nov-23 20:28N 39°54' W 075°12'0 0.0
2017-Nov-23 19:58N 39°54' W 075°12'0 0.0
2017-Nov-23 19:28N 39°54' W 075°12'0 0.0
2017-Nov-23 18:58N 39°54' W 075°12'0 0.0
2017-Nov-23 18:28N 39°54' W 075°12'0 0.0
2017-Nov-23 17:58N 39°54' W 075°12'0 0.0
2017-Nov-23 17:28N 39°54' W 075°12'0 0.0
2017-Nov-23 16:58N 39°54' W 075°12'0 0.0
2017-Nov-23 16:28N 39°54' W 075°12'0 0.0
2017-Nov-23 15:58N 39°54' W 075°12'0 0.0
2017-Nov-23 15:28N 39°54' W 075°12'0 0.0
2017-Nov-23 14:58N 39°54' W 075°12'0 0.0
2017-Nov-23 14:25N 39°54' W 075°12'0 0.0
2017-Nov-23 13:58N 39°54' W 075°12'0 0.0
2017-Nov-23 13:28N 39°54' W 075°12'0 0.0
2017-Nov-23 12:34N 39°54' W 075°12'0 0.0
2017-Nov-23 12:28N 39°54' W 075°12'0 0.0
2017-Nov-23 11:58N 39°54' W 075°12'0 0.0
2017-Nov-23 11:25N 39°54' W 075°12'0 0.0
2017-Nov-23 10:58N 39°54' W 075°12'0 0.0
2017-Nov-23 10:28N 39°54' W 075°12'0 0.0
2017-Nov-23 09:58N 39°54' W 075°12'0 0.0
2017-Nov-23 09:28N 39°54' W 075°12'0 0.0
2017-Nov-23 08:58N 39°54' W 075°12'0 0.0
2017-Nov-23 08:28N 39°54' W 075°12'0 0.0
2017-Nov-23 07:58N 39°54' W 075°12'0 0.0
2017-Nov-23 07:28N 39°54' W 075°12'0 0.0
2017-Nov-23 06:58N 39°54' W 075°12'0 0.0
2017-Nov-23 06:28N 39°54' W 075°12'0 0.0
2017-Nov-23 05:58N 39°54' W 075°12'0 0.0
2017-Nov-23 05:28N 39°54' W 075°12'0 0.0
2017-Nov-23 04:58N 39°54' W 075°12'0 0.0
2017-Nov-23 04:28N 39°54' W 075°12'0 0.0
2017-Nov-23 04:00N 39°54' W 075°12'1 1.5
2017-Nov-23 03:30N 39°54' W 075°13'1 2.1
2017-Nov-23 03:00N 39°53' W 075°12'3 5.2
2017-Nov-23 02:30N 39°53' W 075°08'4 7.1
2017-Nov-23 02:01N 39°57' W 075°08'3 6.5
2017-Nov-23 01:30N 39°59' W 075°05'0 0.4
2017-Nov-23 01:00N 39°59' W 075°05'0 0.1
2017-Nov-23 00:30N 39°59' W 075°05'3 6.4
2017-Nov-23 00:00N 39°57' W 075°08'4 7.7
2017-Nov-22 23:30N 39°53' W 075°08'3 5.6
2017-Nov-22 23:00N 39°54' W 075°12'1 1.2
2017-Nov-22 22:30N 39°54' W 075°13'4 7.3
2017-Nov-22 22:01N 39°54' W 075°08'1 1.9
2017-Nov-22 21:30N 39°55' W 075°08'0 0.0
2017-Nov-22 21:01N 39°55' W 075°08'0 0.0
2017-Nov-22 20:31N 39°55' W 075°08'0 0.0
2017-Nov-22 20:01N 39°55' W 075°08'0 0.1
2017-Nov-22 19:31N 39°55' W 075°08'  
2017-Nov-20 00:30N 39°47' W 075°27'0 0.2
2017-Nov-20 00:00N 39°47' W 075°27'0 0.0
2017-Nov-19 23:30N 39°47' W 075°27'0 0.0
2017-Nov-19 23:00N 39°47' W 075°27'0 0.0
2017-Nov-19 22:30N 39°47' W 075°27'0 0.0
2017-Nov-19 22:00N 39°47' W 075°27'0 0.0
2017-Nov-19 21:30N 39°47' W 075°27'0 0.0
2017-Nov-19 21:00N 39°47' W 075°27'0 0.0
2017-Nov-19 20:30N 39°47' W 075°27'0 0.0
2017-Nov-19 20:00N 39°47' W 075°27'0 0.5
2017-Nov-19 19:30N 39°47' W 075°27'1 2.4
2017-Nov-19 19:00N 39°48' W 075°25'3 5.6
2017-Nov-19 18:31N 39°50' W 075°22'3 6.8
2017-Nov-19 18:00N 39°48' W 075°26'1 1.6
2017-Nov-19 17:30N 39°47' W 075°27'0 0.2
2017-Nov-19 17:00N 39°47' W 075°27'0 0.1
2017-Nov-19 16:30N 39°47' W 075°27'0 0.3
2017-Nov-19 16:00N 39°47' W 075°27'0 0.3
2017-Nov-19 15:30N 39°47' W 075°27'0 0.1
2017-Nov-19 15:01N 39°47' W 075°27'0 0.4
2017-Nov-19 14:30N 39°47' W 075°27'2 4.6
2017-Nov-19 14:00N 39°49' W 075°24'2 5.0
2017-Nov-19 13:30N 39°50' W 075°22'0 0.5
2017-Nov-19 13:00N 39°50' W 075°21'0 0.1
2017-Nov-19 12:30N 39°50' W 075°21'0 0.1
2017-Nov-19 12:00N 39°50' W 075°21'0 0.0
2017-Nov-19 11:31N 39°50' W 075°21'0 0.0
2017-Nov-19 11:00N 39°50' W 075°21'0 0.1
2017-Nov-19 10:30N 39°50' W 075°21'0 0.1
2017-Nov-19 10:00N 39°50' W 075°21'0 0.2
2017-Nov-19 09:30N 39°50' W 075°21'0 0.0
2017-Nov-19 09:00N 39°50' W 075°21'0 0.0
2017-Nov-19 08:30N 39°50' W 075°21'0 0.0
2017-Nov-19 08:00N 39°50' W 075°21'0 0.0
2017-Nov-19 07:30N 39°50' W 075°21'0 0.2
2017-Nov-19 07:00N 39°50' W 075°21'0 0.2
2017-Nov-19 06:30N 39°50' W 075°21'0 0.0
2017-Nov-19 06:00N 39°50' W 075°21'0 0.0
2017-Nov-19 05:30N 39°50' W 075°21'0 0.0
2017-Nov-19 05:00N 39°50' W 075°21'0 0.0
2017-Nov-19 04:31N 39°50' W 075°21'0 0.0
2017-Nov-19 04:01N 39°50' W 075°21'0 0.0
2017-Nov-19 03:30N 39°50' W 075°21'0 0.0
2017-Nov-19 03:00N 39°50' W 075°21'0 0.0
2017-Nov-19 02:31N 39°50' W 075°21'0 0.1
2017-Nov-19 02:00N 39°50' W 075°21'0 0.0
2017-Nov-19 01:30N 39°50' W 075°21'0 0.2
2017-Nov-19 01:00N 39°50' W 075°21'0 0.1
2017-Nov-19 00:30N 39°50' W 075°21'0 0.0
2017-Nov-19 00:00N 39°50' W 075°21'0 0.0
2017-Nov-18 23:30N 39°50' W 075°21'0 0.0
2017-Nov-18 23:01N 39°50' W 075°21'0 0.0
2017-Nov-18 22:30N 39°50' W 075°21'0 0.1
2017-Nov-18 22:00N 39°50' W 075°21'1 1.3
2017-Nov-18 21:30N 39°50' W 075°22'2 3.7
2017-Nov-18 21:00N 39°49' W 075°24'2 4.4
2017-Nov-18 20:30N 39°47' W 075°26'1 1.0
2017-Nov-18 20:00N 39°47' W 075°27'0 0.0
2017-Nov-18 19:30N 39°47' W 075°27'0 0.2
2017-Nov-18 19:01N 39°47' W 075°27'0 0.1
2017-Nov-18 18:31N 39°47' W 075°27'0 0.1
2017-Nov-18 18:00N 39°47' W 075°27'0 0.0
2017-Nov-18 17:31N 39°47' W 075°27'0 0.0
2017-Nov-18 17:00N 39°47' W 075°27'0 0.0
2017-Nov-18 16:31N 39°47' W 075°27'0 0.2
2017-Nov-18 16:00N 39°47' W 075°27'0 0.0
2017-Nov-18 15:31N 39°47' W 075°27'0 0.0
2017-Nov-18 15:00N 39°47' W 075°27'0 0.1
2017-Nov-18 14:30N 39°47' W 075°27'0 0.0
2017-Nov-18 14:00N 39°47' W 075°27'0 0.0
2017-Nov-18 13:30N 39°47' W 075°27'0 0.0
2017-Nov-18 13:00N 39°47' W 075°27'0 0.0
2017-Nov-18 12:30N 39°47' W 075°27'0 0.0
2017-Nov-18 12:00N 39°47' W 075°27'0 0.0
2017-Nov-18 11:30N 39°47' W 075°27'0 0.0
2017-Nov-18 11:00N 39°47' W 075°27'0 0.0
2017-Nov-18 10:30N 39°47' W 075°27'0 0.0
2017-Nov-18 10:00N 39°47' W 075°27'0 0.0
2017-Nov-18 09:30N 39°47' W 075°27'0 0.1
2017-Nov-18 09:00N 39°47' W 075°27'0 0.2
2017-Nov-18 08:30N 39°47' W 075°27'2 4.8
2017-Nov-18 08:00N 39°49' W 075°24'3 5.1
2017-Nov-18 07:30N 39°50' W 075°21'0 0.0
2017-Nov-18 07:00N 39°50' W 075°21'0 0.0
2017-Nov-18 06:30N 39°50' W 075°21'0 0.0
2017-Nov-18 06:01N 39°50' W 075°21'0 0.0
2017-Nov-18 05:30N 39°50' W 075°21'0 0.0
2017-Nov-18 05:00N 39°50' W 075°21'0 0.0
2017-Nov-18 04:30N 39°50' W 075°21'0 0.0
2017-Nov-18 04:00N 39°50' W 075°21'0 0.0
2017-Nov-18 03:30N 39°50' W 075°21'0 0.0
2017-Nov-18 03:00N 39°50' W 075°21'0 0.0
2017-Nov-18 02:30N 39°50' W 075°21'0 0.0
2017-Nov-18 02:00N 39°50' W 075°21'0 0.0
2017-Nov-18 01:30N 39°50' W 075°21'0 0.0
2017-Nov-18 01:00N 39°50' W 075°21'0 0.0
2017-Nov-18 00:30N 39°50' W 075°21'0 0.0
2017-Nov-18 00:01N 39°50' W 075°21'0 0.1
2017-Nov-17 23:31N 39°50' W 075°21'0 0.0
2017-Nov-17 23:00N 39°50' W 075°21'0 0.0
2017-Nov-17 22:31N 39°50' W 075°21'0 0.0
2017-Nov-17 22:01N 39°50' W 075°21'0 0.0
2017-Nov-17 21:30N 39°50' W 075°21'0 0.0
2017-Nov-17 21:01N 39°50' W 075°21'0 0.0
2017-Nov-17 20:30N 39°50' W 075°21'0 0.0
2017-Nov-17 20:01N 39°50' W 075°21'0 0.0
2017-Nov-17 19:31N 39°50' W 075°21'0 0.0
2017-Nov-17 19:00N 39°50' W 075°21'0 0.0
2017-Nov-17 18:31N 39°50' W 075°21'0 0.0
2017-Nov-17 18:00N 39°50' W 075°21'0 0.3
2017-Nov-17 17:30N 39°50' W 075°22'0 0.0
2017-Nov-17 17:01N 39°50' W 075°22'0 0.0
2017-Nov-17 16:31N 39°50' W 075°22'0 0.1
2017-Nov-17 16:00N 39°50' W 075°22'0 0.0
2017-Nov-17 15:30N 39°50' W 075°22'0 0.0
2017-Nov-17 15:00N 39°50' W 075°22'0 0.0
2017-Nov-17 14:30N 39°50' W 075°22'0 0.0
2017-Nov-17 14:00N 39°50' W 075°22'0 0.0
2017-Nov-17 13:30N 39°50' W 075°22'0 0.0
2017-Nov-17 13:00N 39°50' W 075°22'0 0.0
2017-Nov-17 12:30N 39°50' W 075°22'0 0.1
2017-Nov-17 12:00N 39°50' W 075°22'1 2.6
2017-Nov-17 11:31N 39°49' W 075°23'3 5.2
2017-Nov-17 11:00N 39°48' W 075°26'1 2.0
2017-Nov-17 10:30N 39°47' W 075°27'0 0.0
2017-Nov-17 10:01N 39°47' W 075°27'0 0.0
2017-Nov-17 09:31N 39°47' W 075°27'0 0.0
2017-Nov-17 09:01N 39°47' W 075°27'0 0.0
2017-Nov-17 08:30N 39°47' W 075°27'0 0.0
2017-Nov-17 08:00N 39°47' W 075°27'0 0.1
2017-Nov-17 07:30N 39°47' W 075°27'0 0.0
2017-Nov-17 07:00N 39°47' W 075°27'0 0.0
2017-Nov-17 06:30N 39°47' W 075°27'0 0.0
2017-Nov-17 06:00N 39°47' W 075°27'0 0.0
2017-Nov-17 05:30N 39°47' W 075°27'0 0.0
2017-Nov-17 05:00N 39°47' W 075°27'0 0.0
2017-Nov-17 04:30N 39°47' W 075°27'0 0.0
2017-Nov-17 04:00N 39°47' W 075°27'0 0.0
2017-Nov-17 03:30N 39°47' W 075°27'1 2.4
2017-Nov-17 03:00N 39°48' W 075°26'2 4.1
2017-Nov-17 02:31N 39°49' W 075°23'2 3.4
2017-Nov-17 02:00N 39°50' W 075°22'2 3.5
2017-Nov-17 01:30N 39°51' W 075°19'0 0.1
2017-Nov-17 01:00N 39°51' W 075°19'0 0.0
2017-Nov-17 00:30N 39°51' W 075°19'0 0.0
2017-Nov-17 00:00N 39°51' W 075°19'0 0.0
2017-Nov-16 23:30N 39°51' W 075°19'0 0.0
2017-Nov-16 23:01N 39°51' W 075°19'0 0.0
2017-Nov-16 22:31N 39°51' W 075°19'0 0.4
2017-Nov-16 22:00N 39°51' W 075°20'0 0.4
2017-Nov-16 21:30N 39°51' W 075°19'0 0.0
2017-Nov-16 21:00N 39°51' W 075°19'0 0.0
2017-Nov-16 20:30N 39°51' W 075°19'0 0.0
2017-Nov-16 20:01N 39°51' W 075°19'0 0.0
2017-Nov-16 19:30N 39°51' W 075°19'0 0.0
2017-Nov-16 19:00N 39°51' W 075°19'0 0.0
2017-Nov-16 18:31N 39°51' W 075°19'0 0.0
2017-Nov-16 18:00N 39°51' W 075°19'0 0.0
2017-Nov-16 17:31N 39°51' W 075°19'0 0.0
2017-Nov-16 17:00N 39°51' W 075°19'0 0.0
2017-Nov-16 16:30N 39°51' W 075°19'0 0.0
2017-Nov-16 16:00N 39°51' W 075°19'0 0.1
2017-Nov-16 15:30N 39°51' W 075°19'3 6.7
2017-Nov-16 15:01N 39°49' W 075°23'3 6.6
2017-Nov-16 14:30N 39°47' W 075°27'0 0.1
2017-Nov-16 14:00N 39°47' W 075°27'0 0.0
2017-Nov-16 13:30N 39°47' W 075°27'0 0.0
2017-Nov-16 13:00N 39°47' W 075°27'0 0.0
2017-Nov-16 12:30N 39°47' W 075°27'0 0.0
2017-Nov-16 12:00N 39°47' W 075°27'0 0.0
2017-Nov-16 11:30N 39°47' W 075°27'0 0.0
2017-Nov-16 11:00N 39°47' W 075°27'0 0.0
2017-Nov-16 10:30N 39°47' W 075°27'0 0.0
2017-Nov-16 10:00N 39°47' W 075°27'0 0.0
2017-Nov-16 09:30N 39°47' W 075°27'0 0.0
2017-Nov-16 09:00N 39°47' W 075°27'0 0.0
2017-Nov-16 08:30N 39°47' W 075°27'0 0.0
2017-Nov-16 08:00N 39°47' W 075°27'0 0.0
2017-Nov-16 07:31N 39°47' W 075°27'0 0.0
2017-Nov-16 07:00N 39°47' W 075°27'0 0.0
2017-Nov-16 06:30N 39°47' W 075°27'0 0.0
2017-Nov-16 06:00N 39°47' W 075°27'0 0.1
2017-Nov-16 05:30N 39°47' W 075°27'0 0.3
2017-Nov-16 05:00N 39°47' W 075°27'0 0.1
2017-Nov-16 04:31N 39°47' W 075°27'0 0.2
2017-Nov-16 04:00N 39°47' W 075°27'0 0.0
2017-Nov-16 03:30N 39°47' W 075°27'0 0.0
2017-Nov-16 03:00N 39°47' W 075°27'0 0.0
2017-Nov-16 02:30N 39°47' W 075°27'0 0.0
2017-Nov-16 02:00N 39°47' W 075°27'0 0.0
2017-Nov-16 01:31N 39°47' W 075°27'0 0.0
2017-Nov-16 01:00N 39°47' W 075°27'0 0.0
2017-Nov-16 00:30N 39°47' W 075°27'0 0.0
2017-Nov-16 00:00N 39°47' W 075°27'0 0.0
2017-Nov-15 23:30N 39°47' W 075°27'0 0.0
2017-Nov-15 23:00N 39°47' W 075°27'0 0.0
2017-Nov-15 22:30N 39°47' W 075°27'0 0.0
2017-Nov-15 22:00N 39°47' W 075°27'0 0.0
2017-Nov-15 21:30N 39°47' W 075°27'0 0.0
2017-Nov-15 21:00N 39°47' W 075°27'0 0.0
2017-Nov-15 20:30N 39°47' W 075°27'0 0.0
2017-Nov-15 20:00N 39°47' W 075°27'0 0.0
2017-Nov-15 19:30N 39°47' W 075°27'0 0.0
2017-Nov-15 19:00N 39°47' W 075°27'0 0.0
2017-Nov-15 18:30N 39°47' W 075°27'0 0.0
2017-Nov-15 18:00N 39°47' W 075°27'0 0.0
2017-Nov-15 17:30N 39°47' W 075°27'0 0.0
2017-Nov-15 17:00N 39°47' W 075°27'0 0.0
2017-Nov-15 16:30N 39°47' W 075°27'0 0.1
2017-Nov-15 16:01N 39°47' W 075°27'0 0.2
2017-Nov-15 15:31N 39°47' W 075°27'0 0.1
2017-Nov-15 15:01N 39°47' W 075°27'0 0.9
2017-Nov-15 14:30N 39°47' W 075°26'3 6.3
2017-Nov-15 13:59N 39°50' W 075°23'0 0.0
2017-Nov-15 13:29N 39°50' W 075°23'0 0.0
2017-Nov-15 12:59N 39°50' W 075°23'0 0.0
2017-Nov-15 12:29N 39°50' W 075°23'0 0.0
2017-Nov-15 11:59N 39°50' W 075°23'0 0.0
2017-Nov-15 11:29N 39°50' W 075°23'0 0.0
2017-Nov-15 10:59N 39°50' W 075°23'0 0.0
2017-Nov-15 10:29N 39°50' W 075°23'0 0.0
2017-Nov-15 09:59N 39°50' W 075°23'0 0.0
2017-Nov-15 09:29N 39°50' W 075°23'0 0.0
2017-Nov-15 08:59N 39°50' W 075°23'0 0.0
2017-Nov-15 08:29N 39°50' W 075°23'0 0.0
2017-Nov-15 07:59N 39°50' W 075°23'0 0.0
2017-Nov-15 07:29N 39°50' W 075°23'0 0.0
2017-Nov-15 06:56N 39°50' W 075°23'0 0.0
2017-Nov-15 06:29N 39°50' W 075°23'0 0.0
2017-Nov-15 05:59N 39°50' W 075°23'0 0.0
2017-Nov-15 05:29N 39°50' W 075°23'0 0.0
2017-Nov-15 04:59N 39°50' W 075°23'0 0.0
2017-Nov-15 04:29N 39°50' W 075°23'0 0.0
2017-Nov-15 03:59N 39°50' W 075°23'0 0.0
2017-Nov-15 03:29N 39°50' W 075°23'0 0.0
2017-Nov-15 02:59N 39°50' W 075°23'0 0.0
2017-Nov-15 02:29N 39°50' W 075°23'0 0.0
2017-Nov-15 01:59N 39°50' W 075°23'0 0.0
2017-Nov-15 01:29N 39°50' W 075°23'0 0.0
2017-Nov-15 00:59N 39°50' W 075°23'0 0.0
2017-Nov-15 00:29N 39°50' W 075°23'0 0.0
2017-Nov-14 22:52N 39°50' W 075°23'3 7.2
2017-Nov-14 22:31N 39°51' W 075°20'1 1.2
2017-Nov-14 22:01N 39°51' W 075°19'0 0.0
2017-Nov-14 21:30N 39°51' W 075°19'0 0.0
2017-Nov-14 21:00N 39°51' W 075°19'  

Dump ship's entire track history